LSZB/BRN METAR and TAF weather

Enter ICAO airport designator
Station Type Date Time Source
LSZB METAR 2022/01/29 00:20 UTC NOAA

LSZB 290020Z AUTO VRB02KT 5000 FEW130 M04/M04 Q1035


Station Type Date Time Source
LSZB Decoded METAR 2022/01/29 00:20 UTC NOAA

Bern / Belp , Switzerland (LSZB) 46-55N 007-30E
Jan 28, 2022 - 07:20 PM EST / 2022.01.29 0020 UTC
Wind: Variable at 2 MPH (2 KT):0
Visibility: 3 mile(s):0
Sky conditions: mostly clear
Temperature: 24 F (-4 C)
Dew Point: 24 F (-4 C)
Relative Humidity: 100%
Pressure (altimeter): 30.56 in. Hg (1035 hPa)
ob: LSZB 290020Z AUTO VRB02KT 5000 FEW130 M04/M04 Q1035
cycle: 0

Station Type Date Time Source
LSZB TAF 2014/12/22 20:03 UTC NOAA

TAF
AMD TAF
AMD LSZB 222054Z 2220/2224 CNL

Example: see airport list